地図

経路データ

SID SEASON NUMBER BASIN SUBBASIN NAME ISO_TIME NATURE LAT LON WMO_WIND WMO_PRES WMO_AGENCY TRACK_TYPE DIST2LAND LANDFALL IFLAG USA_AGENCY USA_ATCF_ID USA_LAT USA_LON USA_RECORD USA_STATUS USA_WIND USA_PRES USA_SSHS USA_R34_NE USA_R34_SE USA_R34_SW USA_R34_NW USA_R50_NE USA_R50_SE USA_R50_SW USA_R50_NW USA_R64_NE USA_R64_SE USA_R64_SW USA_R64_NW USA_POCI USA_ROCI USA_RMW USA_EYE TOKYO_LAT TOKYO_LON TOKYO_GRADE TOKYO_WIND TOKYO_PRES TOKYO_R50_DIR TOKYO_R50_LONG TOKYO_R50_SHORT TOKYO_R30_DIR TOKYO_R30_LONG TOKYO_R30_SHORT TOKYO_LAND CMA_LAT CMA_LON CMA_CAT CMA_WIND CMA_PRES HKO_LAT HKO_LON HKO_CAT HKO_WIND HKO_PRES NEWDELHI_LAT NEWDELHI_LON NEWDELHI_GRADE NEWDELHI_WIND NEWDELHI_PRES NEWDELHI_CI NEWDELHI_DP NEWDELHI_POCI REUNION_LAT REUNION_LON REUNION_TYPE REUNION_WIND REUNION_PRES REUNION_TNUM REUNION_CI REUNION_RMW REUNION_R34_NE REUNION_R34_SE REUNION_R34_SW REUNION_R34_NW REUNION_R50_NE REUNION_R50_SE REUNION_R50_SW REUNION_R50_NW REUNION_R64_NE REUNION_R64_SE REUNION_R64_SW REUNION_R64_NW BOM_LAT BOM_LON BOM_TYPE BOM_WIND BOM_PRES BOM_TNUM BOM_CI BOM_RMW BOM_R34_NE BOM_R34_SE BOM_R34_SW BOM_R34_NW BOM_R50_NE BOM_R50_SE BOM_R50_SW BOM_R50_NW BOM_R64_NE BOM_R64_SE BOM_R64_SW BOM_R64_NW BOM_ROCI BOM_POCI BOM_EYE BOM_POS_METHOD BOM_PRES_METHOD NADI_LAT NADI_LON NADI_CAT NADI_WIND NADI_PRES WELLINGTON_LAT WELLINGTON_LON WELLINGTON_WIND WELLINGTON_PRES DS824_LAT DS824_LON DS824_STAGE DS824_WIND DS824_PRES TD9636_LAT TD9636_LON TD9636_STAGE TD9636_WIND TD9636_PRES TD9635_LAT TD9635_LON TD9635_WIND TD9635_PRES TD9635_ROCI NEUMANN_LAT NEUMANN_LON NEUMANN_CLASS NEUMANN_WIND NEUMANN_PRES MLC_LAT MLC_LON MLC_CLASS MLC_WIND MLC_PRES USA_GUST BOM_GUST BOM_GUST_PER REUNION_GUST REUNION_GUST_PER USA_SEAHGT USA_SEARAD_NE USA_SEARAD_SE USA_SEARAD_SW USA_SEARAD_NW STORM_SPEED STORM_DIR
1939043N09128 1939 17 WP MM NOT_NAMED 1939-02-11 22:00:00 NR 9.30000 128.400 main 237 229 __________O___ -1 9.30000 128.400 7 7 325
1939043N09128 1939 17 WP MM NOT_NAMED 1939-02-12 00:00:00 NR 9.48014 128.272 main 233 215 __________P___ -1 9.48014 128.272 7 7 325
1939043N09128 1939 17 WP MM NOT_NAMED 1939-02-12 03:00:00 NR 9.75151 128.078 main 219 202 __________P___ -1 9.75151 128.078 7 7 325
1939043N09128 1939 17 WP MM NOT_NAMED 1939-02-12 06:00:00 NR 10.0260 127.879 main 206 199 __________P___ -1 10.0260 127.879 7 7 324
1939043N09128 1939 17 WP MM NOT_NAMED 1939-02-12 09:00:00 NR 10.3054 127.672 main 205 196 __________P___ -1 10.3054 127.672 7 7 324
1939043N09128 1939 17 WP MM NOT_NAMED 1939-02-12 10:00:00 NR 10.4000 127.600 main 202 191 __________O___ -1 10.4000 127.600 7 7 323
1939043N09128 1939 17 WP MM NOT_NAMED 1939-02-12 12:00:00 NR 10.5917 127.453 main 191 153 __________P___ -1 10.5917 127.453 7 7 323
1939043N09128 1939 17 WP MM NOT_NAMED 1939-02-12 15:00:00 NR 10.8854 127.226 main 153 131 __________P___ -1 10.8854 127.226 7 7 323
1939043N09128 1939 17 WP MM NOT_NAMED 1939-02-12 18:00:00 NR 11.1867 126.997 main 132 117 __________P___ -1 11.1867 126.997 7 8 324
1939043N09128 1939 17 WP MM NOT_NAMED 1939-02-12 21:00:00 NR 11.4954 126.773 main 122 113 __________P___ -1 11.4954 126.773 7 8 325
1939043N09128 1939 17 WP MM NOT_NAMED 1939-02-12 22:00:00 NR 11.6000 126.700 main 118 114 __________O___ -1 11.6000 126.700 7 8 326
1939043N09128 1939 17 WP MM NOT_NAMED 1939-02-13 00:00:00 NR 11.8031 126.556 main 117 87 __________P___ -1 11.8031 126.556 7 7 326
1939043N09128 1939 17 WP MM NOT_NAMED 1939-02-13 03:00:00 NR 12.1138 126.345 main 87 68 __________P___ -1 12.1138 126.345 7 8 328
1939043N09128 1939 17 WP MM NOT_NAMED 1939-02-13 06:00:00 NR 12.4375 126.145 main 68 70 __________P___ -1 12.4375 126.145 7 8 330
1939043N09128 1939 17 WP MM NOT_NAMED 1939-02-13 09:00:00 NR 12.7804 125.959 main 86 79 __________P___ -1 12.7804 125.959 7 8 332
1939043N09128 1939 17 WP MM NOT_NAMED 1939-02-13 10:00:00 NR 12.9000 125.900 main 85 85 __________O___ -1 12.9000 125.900 7 8 336
1939043N09128 1939 17 WP MM NOT_NAMED 1939-02-13 12:00:00 NR 13.1480 125.788 main 93 101 __________P___ -1 13.1480 125.788 7 8 338
1939043N09128 1939 17 WP MM NOT_NAMED 1939-02-13 15:00:00 NR 13.5385 125.632 main 120 118 __________P___ -1 13.5385 125.632 7 9 340
1939043N09128 1939 17 WP MM NOT_NAMED 1939-02-13 18:00:00 NR 13.9450 125.487 main 118 110 __________P___ -1 13.9450 125.487 7 9 341
1939043N09128 1939 17 WP MM NOT_NAMED 1939-02-13 21:00:00 NR 14.3606 125.346 main 112 112 __________P___ -1 14.3606 125.346 7 9 342
1939043N09128 1939 17 WP MM NOT_NAMED 1939-02-13 22:00:00 NR 14.5000 125.300 main 118 __________O___ -1 14.5000 125.300 7 9 348

デジタル台風データ・検索

IBTrACS Databaseについて

本データベースは、米国NOAAが公開する1842年以降の世界の熱帯低気圧のベストトラックデータアーカイブInternational Best Track Archive for Climate Stewardship (IBTrACS)を、ウェブで閲覧しやすい形式に変換したものです。

最終更新日:2021-10-08